Time;durP1;ratioP1;P1;durP2;ratioP2;P2;SDS_P1;SDS_P2;PMS_P1;PMS_P2;Temp;Humidity;BMP_temperature;BMP_pressure;BME280_temperature;BME280_humidity;BME280_pressure;Samples;Min_cycle;Max_cycle;Signal;HPM_P1;HPM_P2
2024/04/09 00:00:27;;;;;;;0.10;0.10;;;;;;;-145.06;100.00;51394.13;11259215;26;19999;-76
2024/04/09 00:05:31;;;;;;;0.10;0.10;;;;;;;-145.06;100.00;51382.00;11220404;26;20347;-75
2024/04/09 00:10:32;;;;;;;0.10;0.10;;;;;;;-145.06;100.00;51343.53;11270119;26;20052;-75
2024/04/09 00:15:35;;;;;;;0.00;0.00;;;;;;;-145.06;100.00;51361.75;11240772;26;20007;-75
2024/04/09 00:20:35;;;;;;;0.00;0.00;;;;;;;-145.06;100.00;51357.69;11238160;26;20047;-75
2024/04/09 00:25:37;;;;;;;0.10;0.10;;;;;;;-145.06;100.00;51327.34;11241106;26;20015;-76
2024/04/09 00:30:39;;;;;;;0.00;0.00;;;;;;;-145.06;100.00;51299.00;11219977;26;20014;-76
2024/04/09 00:35:40;;;;;;;0.10;0.10;;;;;;;-145.06;100.00;51240.31;11240471;26;20011;-76
2024/04/09 00:40:42;;;;;;;0.10;0.10;;;;;;;-145.06;100.00;51167.47;11251026;26;20003;-76
2024/04/09 00:45:45;;;;;;;0.10;0.10;;;;;;;-145.06;100.00;51106.75;11255109;26;20072;-76
2024/04/09 00:50:46;;;;;;;0.00;0.00;;;;;;;-145.06;100.00;51116.88;11259847;26;20004;-76
2024/04/09 00:55:49;;;;;;;0.10;0.10;;;;;;;-145.06;100.00;51145.19;11252574;26;20356;-75
2024/04/09 01:00:50;;;;;;;0.10;0.10;;;;;;;-145.06;100.00;51177.59;11267670;26;20412;-76
2024/04/09 01:05:52;;;;;;;0.00;0.00;;;;;;;-145.06;100.00;51159.38;11268206;26;20011;-76
2024/04/09 01:10:52;;;;;;;0.10;0.10;;;;;;;-145.06;100.00;51151.28;11247262;26;19999;-76
2024/04/09 01:15:52;;;;;;;0.00;0.00;;;;;;;-145.06;100.00;51118.91;11247997;26;20009;-76
2024/04/09 01:20:54;;;;;;;0.10;0.10;;;;;;;-145.06;100.00;50793.09;11227585;26;20458;-77
2024/04/09 01:25:55;;;;;;;0.10;0.10;;;;;;;-145.06;100.00;50752.63;11255640;26;19999;-76
2024/04/09 01:30:55;;;;;;;0.00;0.00;;;;;;;-145.06;100.00;50922.59;11234131;26;20451;-75
2024/04/09 01:35:55;;;;;;;0.10;0.10;;;;;;;-145.06;100.00;50916.53;11256771;26;20010;-76
2024/04/09 01:40:56;;;;;;;0.03;0.03;;;;;;;-145.06;100.00;50946.88;11265924;26;20012;-76
2024/04/09 01:45:56;;;;;;;0.10;0.10;;;;;;;-145.06;100.00;50892.25;11260173;26;20003;-76
2024/04/09 01:50:57;;;;;;;0.10;0.10;;;;;;;-145.06;100.00;50936.75;11244574;26;20375;-78
2024/04/09 01:56:00;;;;;;;0.10;0.10;;;;;;;-145.06;100.00;50963.06;11260709;26;20003;-76
2024/04/09 02:01:05;;;;;;;0.10;0.10;;;;;;;-145.06;100.00;50965.09;11268015;26;20517;-78
2024/04/09 02:06:07;;;;;;;0.10;0.10;;;;;;;-145.06;100.00;50961.03;11249754;26;20237;-78
2024/04/09 02:11:12;;;;;;;0.10;0.10;;;;;;;-145.06;100.00;50989.38;11253958;26;20332;-76
2024/04/09 02:16:12;;;;;;;0.10;0.10;;;;;;;-145.06;100.00;50989.38;11252277;26;19999;-77
2024/04/09 02:21:15;;;;;;;0.10;0.10;;;;;;;-145.06;100.00;50997.47;11254226;26;20003;-75
2024/04/09 02:26:15;;;;;;;0.10;0.10;;;;;;;-145.06;100.00;51060.19;11257570;26;19998;-77
2024/04/09 02:31:16;;;;;;;0.10;0.10;;;;;;;-145.06;100.00;51060.19;11228141;26;20013;-76
2024/04/09 02:36:16;;;;;;;0.00;0.00;;;;;;;-145.06;100.00;50973.19;11248746;26;20011;-77
2024/04/09 02:41:17;;;;;;;0.00;0.00;;;;;;;-145.06;100.00;50997.47;11260321;26;20003;-77
2024/04/09 02:46:17;;;;;;;0.10;0.10;;;;;;;-145.06;100.00;51029.84;11237832;26;20071;-76
2024/04/09 02:51:18;;;;;;;0.10;0.10;;;;;;;-145.06;100.00;51151.28;11266874;26;20017;-77
2024/04/09 02:56:19;;;;;;;0.00;0.00;;;;;;;-145.06;100.00;51064.25;11268330;26;20468;-76
2024/04/09 03:01:19;;;;;;;0.10;0.10;;;;;;;-145.06;100.00;50926.66;11272708;26;20003;-76
2024/04/09 03:06:19;;;;;;;0.10;0.10;;;;;;;-145.06;100.00;50843.69;11269412;26;19999;-77
2024/04/09 03:11:20;;;;;;;0.00;0.00;;;;;;;-145.06;100.00;51029.84;11235726;26;20018;-77
2024/04/09 03:16:21;;;;;;;0.00;0.00;;;;;;;-145.06;100.00;51005.56;11272050;26;19999;-76
2024/04/09 03:21:22;;;;;;;0.00;0.00;;;;;;;-145.06;100.00;51011.63;11231236;26;20321;-77
2024/04/09 03:26:22;;;;;;;0.00;0.00;;;;;;;-145.06;100.00;50989.38;11224834;26;20030;-76
2024/04/09 03:31:25;;;;;;;0.10;0.10;;;;;;;-145.06;100.00;50961.03;11265439;26;20111;-77
2024/04/09 03:36:25;;;;;;;0.10;0.10;;;;;;;-145.06;100.00;50861.88;11269275;26;19999;-76
2024/04/09 03:41:27;;;;;;;0.00;0.00;;;;;;;-145.06;100.00;50782.97;11258267;26;20003;-76
2024/04/09 03:46:27;;;;;;;0.10;0.10;;;;;;;-145.06;100.00;50704.06;11257618;26;19999;-77
2024/04/09 03:51:27;;;;;;;0.10;0.10;;;;;;;-145.06;100.00;50641.31;11263422;26;20419;-77
2024/04/09 03:56:28;;;;;;;0.10;0.10;;;;;;;-145.06;100.00;50572.53;11269788;26;20448;-77
2024/04/09 04:01:28;;;;;;;0.10;0.10;;;;;;;-145.06;100.00;50568.47;11215645;26;20440;-76
2024/04/09 04:06:28;;;;;;;0.10;0.10;;;;;;;-145.06;100.00;50530.03;11252322;26;20223;-76
2024/04/09 04:11:30;;;;;;;0.10;0.10;;;;;;;-145.06;100.00;50503.72;11263151;26;20402;-77
2024/04/09 04:16:31;;;;;;;0.10;0.10;;;;;;;-145.06;100.00;50544.19;11260855;26;20002;-77
2024/04/09 04:21:31;;;;;;;0.10;0.10;;;;;;;-145.06;100.00;50568.47;11265256;26;20011;-77
2024/04/09 04:26:31;;;;;;;0.10;0.10;;;;;;;-145.06;100.00;50608.94;11260808;26;20011;-77
2024/04/09 04:31:32;;;;;;;0.10;0.10;;;;;;;-145.06;100.00;50629.19;11254603;26;20010;-77
2024/04/09 04:36:32;;;;;;;0.10;0.10;;;;;;;-145.06;100.00;50657.50;11264311;26;19994;-77
2024/04/09 04:41:33;;;;;;;0.10;0.10;;;;;;;-145.06;100.00;50675.72;11260836;26;20448;-76
2024/04/09 04:46:33;;;;;;;0.10;0.10;;;;;;;-145.06;100.00;50708.09;11265625;26;19996;-76
2024/04/09 04:51:33;;;;;;;0.00;0.00;;;;;;;-145.06;100.00;50754.63;11266142;26;19996;-76
2024/04/09 04:56:34;;;;;;;0.00;0.00;;;;;;;-145.06;100.00;50776.91;11275424;26;20048;-77
2024/04/09 05:01:34;;;;;;;0.10;0.10;;;;;;;-145.06;100.00;50778.91;11264601;26;20029;-76
2024/04/09 05:06:34;;;;;;;0.00;0.00;;;;;;;-145.06;100.00;50803.19;11254292;26;19999;-76
2024/04/09 05:11:35;;;;;;;0.10;0.10;;;;;;;-145.06;100.00;50839.63;11262459;26;19999;-76
2024/04/09 05:16:35;;;;;;;0.10;0.10;;;;;;;-145.06;100.00;50865.94;11255424;26;20410;-76
2024/04/09 05:21:35;;;;;;;0.00;0.00;;;;;;;-145.06;100.00;50880.09;11266002;26;19998;-77
2024/04/09 05:26:35;;;;;;;0.00;0.00;;;;;;;-145.06;100.00;50924.63;11258087;26;20010;-76
2024/04/09 05:31:36;;;;;;;0.00;0.00;;;;;;;-145.06;100.00;50940.81;11265802;26;19995;-76
2024/04/09 05:36:37;;;;;;;0.00;0.00;;;;;;;-145.06;100.00;50926.66;11252025;26;20436;-76
2024/04/09 05:41:38;;;;;;;0.00;0.00;;;;;;;-145.06;100.00;50961.03;11253237;26;19991;-76
2024/04/09 05:46:40;;;;;;;0.00;0.00;;;;;;;-145.06;100.00;51017.72;11268391;26;19995;-76
2024/04/09 05:51:40;;;;;;;0.10;0.10;;;;;;;-145.06;100.00;51044.00;11271471;26;20525;-76
2024/04/09 05:56:41;;;;;;;0.00;0.00;;;;;;;-145.06;100.00;51094.59;11286364;26;19995;-76
2024/04/09 06:01:41;;;;;;;0.00;0.00;;;;;;;-145.06;100.00;51118.91;11264097;26;19995;-76
2024/04/09 06:06:41;;;;;;;0.00;0.00;;;;;;;-145.06;100.00;51110.78;11239120;26;20027;-76
2024/04/09 06:11:41;;;;;;;0.10;0.10;;;;;;;-145.06;100.00;51102.69;11263932;26;20389;-76
2024/04/09 06:16:42;;;;;;;0.00;0.00;;;;;;;-145.06;100.00;51094.59;11271480;26;20010;-77
2024/04/09 06:21:42;;;;;;;0.00;0.00;;;;;;;-145.06;100.00;51074.38;11247460;26;19999;-76
2024/04/09 06:26:42;;;;;;;0.00;0.00;;;;;;;-145.06;100.00;51096.63;11232180;26;19999;-75
2024/04/09 06:31:43;;;;;;;0.10;0.10;;;;;;;-145.06;100.00;51110.78;11269341;26;20389;-76
2024/04/09 06:36:43;;;;;;;0.00;0.00;;;;;;;-145.06;100.00;51124.97;11275292;26;19995;-77
2024/04/09 06:41:44;;;;;;;0.00;0.00;;;;;;;-145.06;100.00;51131.03;11268074;26;20356;-76
2024/04/09 06:46:44;;;;;;;0.00;0.00;;;;;;;-145.06;100.00;51167.47;11276432;26;20009;-77
2024/04/09 06:51:45;;;;;;;0.10;0.10;;;;;;;-145.06;100.00;51195.78;11269066;26;19994;-77
2024/04/09 06:56:45;;;;;;;0.08;0.08;;;;;;;-145.06;100.00;51220.09;11263895;26;20026;-76
2024/04/09 07:01:46;;;;;;;0.00;0.00;;;;;;;-145.06;100.00;51207.94;11274619;26;20000;-77
2024/04/09 07:06:46;;;;;;;0.10;0.10;;;;;;;-145.06;100.00;51165.44;11258715;26;20002;-76
2024/04/09 07:11:46;;;;;;;0.00;0.00;;;;;;;-145.06;100.00;51187.69;11273248;26;20015;-77
2024/04/09 07:16:47;;;;;;;0.00;0.00;;;;;;;-145.06;100.00;51147.22;11266819;26;20002;-77
2024/04/09 07:21:48;;;;;;;0.10;0.10;;;;;;;-145.06;100.00;51147.22;11270272;26;20236;-76
2024/04/09 07:26:48;;;;;;;0.10;0.10;;;;;;;-145.06;100.00;51179.59;11273268;26;20408;-76
2024/04/09 07:31:49;;;;;;;0.10;0.10;;;;;;;-145.06;100.00;51177.59;11263638;26;20003;-77
2024/04/09 07:36:49;;;;;;;0.10;0.10;;;;;;;-145.06;100.00;51207.94;11256167;26;20007;-77
2024/04/09 07:41:49;;;;;;;0.10;0.10;;;;;;;-145.06;100.00;51220.09;11264888;26;20014;-76
2024/04/09 07:46:50;;;;;;;0.00;0.00;;;;;;;-145.06;100.00;51157.34;11265243;26;20029;-76
2024/04/09 07:51:50;;;;;;;0.00;0.00;;;;;;;-145.06;100.00;51187.69;11257518;26;20006;-76
2024/04/09 07:56:50;;;;;;;0.00;0.00;;;;;;;-145.06;100.00;51207.94;11230185;26;20007;-76
2024/04/09 08:01:52;;;;;;;0.00;0.00;;;;;;;-145.06;100.00;51260.56;11252590;26;20002;-76
2024/04/09 08:06:52;;;;;;;0.10;0.10;;;;;;;-145.06;100.00;51250.44;11273886;26;20007;-76
2024/04/09 08:11:53;;;;;;;0.00;0.00;;;;;;;-145.06;100.00;51256.50;11276320;26;20011;-76
2024/04/09 08:16:53;;;;;;;0.00;0.00;;;;;;;-145.06;100.00;51230.19;11275571;26;20009;-76
2024/04/09 08:21:54;;;;;;;0.00;0.00;;;;;;;-145.06;100.00;51183.66;11259658;26;20010;-76
2024/04/09 08:26:54;;;;;;;0.00;0.00;;;;;;;-145.06;100.00;51070.31;11285048;26;20003;-77
2024/04/09 08:31:55;;;;;;;0.00;0.00;;;;;;;-145.06;100.00;51108.78;11299654;26;20013;-76
2024/04/09 08:36:55;;;;;;;0.10;0.10;;;;;;;-145.06;100.00;51139.13;11284664;26;20006;-77
2024/04/09 08:41:56;;;;;;;0.00;0.00;;;;;;;-145.06;100.00;51169.50;11304662;26;20351;-76
2024/04/09 08:46:59;;;;;;;0.00;0.00;;;;;;;-145.06;100.00;51151.28;11295118;26;20010;-76
2024/04/09 08:52:00;;;;;;;0.00;0.00;;;;;;;-145.06;100.00;51139.13;11316042;26;20539;-76
2024/04/09 08:57:00;;;;;;;0.00;0.00;;;;;;;-145.06;100.00;51066.28;11297050;26;20268;-77
2024/04/09 09:02:09;;;;;;;0.00;0.00;;;;;;;-145.06;100.00;50896.28;11283581;26;20009;-76
2024/04/09 09:07:18;;;;;;;0.00;0.00;;;;;;;-145.06;100.00;50774.88;11288008;26;20071;-75
2024/04/09 09:12:18;;;;;;;0.08;0.08;;;;;;;-145.06;96.48;50815.34;11318262;26;20002;-76
2024/04/09 09:17:18;;;;;;;0.00;0.00;;;;;;;-145.06;94.68;50861.88;11311575;26;19999;-76
2024/04/09 09:22:18;;;;;;;0.10;0.10;;;;;;;-145.06;89.18;51094.59;11313848;26;20003;-75
2024/04/09 09:27:20;;;;;;;0.00;0.00;;;;;;;-145.06;93.24;51201.88;11265996;26;20010;-74
2024/04/09 09:32:21;;;;;;;0.00;0.00;;;;;;;-145.06;98.64;51276.75;11291155;26;20014;-74
2024/04/09 09:37:22;;;;;;;0.00;0.00;;;;;;;-145.06;100.00;51296.97;11276831;26;20460;-73
2024/04/09 09:42:24;;;;;;;0.00;0.00;;;;;;;-145.06;100.00;51260.56;11269363;26;20002;-74
2024/04/09 09:47:25;;;;;;;0.10;0.10;;;;;;;-145.06;97.89;51268.66;11290854;26;19998;-74
2024/04/09 09:52:26;;;;;;;0.00;0.00;;;;;;;-145.06;95.48;51282.81;11290911;26;20353;-74
2024/04/09 09:57:30;;;;;;;0.00;0.00;;;;;;;-145.06;97.67;51278.78;11307356;26;20016;-74
2024/04/09 10:02:31;;;;;;;0.10;0.10;;;;;;;-145.06;95.79;51363.78;11302919;26;20474;-74
2024/04/09 10:07:32;;;;;;;0.00;0.00;;;;;;;-145.06;96.76;51430.56;11275282;26;20017;-73
2024/04/09 10:12:34;;;;;;;0.00;0.00;;;;;;;-145.06;99.70;51434.59;11284240;26;20352;-73
2024/04/09 10:17:55;;;;;;;0.10;0.10;;;;;;;-145.06;100.00;51471.03;11251270;26;20003;-74
2024/04/09 10:22:57;;;;;;;0.00;0.00;;;;;;;-145.06;100.00;51483.19;11285833;26;19998;-73
2024/04/09 10:28:06;;;;;;;0.00;0.00;;;;;;;-145.06;100.00;51515.56;11288506;26;20012;-73
2024/04/09 10:33:08;;;;;;;0.00;0.00;;;;;;;-145.06;100.00;51531.75;11290450;26;20483;-73
2024/04/09 10:38:10;;;;;;;0.10;0.10;;;;;;;-145.06;100.00;51529.72;11279447;26;20414;-74
2024/04/09 10:43:11;;;;;;;0.00;0.00;;;;;;;-145.06;100.00;51424.50;11269023;26;20013;-73
2024/04/09 10:48:12;;;;;;;0.00;0.00;;;;;;;-145.06;100.00;51363.78;11305496;26;19995;-73
2024/04/09 10:53:13;;;;;;;0.00;0.00;;;;;;;-145.06;100.00;51327.34;11296869;26;20003;-74
2024/04/09 10:58:15;;;;;;;0.10;0.10;;;;;;;-145.06;98.64;51325.31;11283653;26;19999;-73
2024/04/09 11:03:19;;;;;;;0.10;0.10;;;;;;;-145.06;97.12;51369.84;11297256;26;20076;-73
2024/04/09 11:08:32;;;;;;;0.00;0.00;;;;;;;-145.06;97.84;51367.81;11279670;26;20025;-73
2024/04/09 11:13:33;;;;;;;;;;;;;;;-145.06;99.61;51434.59;11271921;26;20023;-73
2024/04/09 11:18:33;;;;;;;0.00;0.00;;;;;;;-145.06;100.00;51497.34;11277200;26;20372;-74
2024/04/09 11:23:33;;;;;;;0.10;0.10;;;;;;;-145.06;100.00;51541.88;11303607;26;20005;-73
2024/04/09 11:28:34;;;;;;;0.00;0.00;;;;;;;-145.06;100.00;51515.56;11290998;26;19994;-73
2024/04/09 11:33:34;;;;;;;0.00;0.00;;;;;;;-145.06;100.00;51487.22;11274191;26;20398;-73
2024/04/09 11:38:34;;;;;;;0.00;0.00;;;;;;;-145.06;100.00;51574.25;11266076;26;20002;-74
2024/04/09 11:43:35;;;;;;;0.10;0.10;;;;;;;-145.06;100.00;51610.69;11291348;26;20011;-74
2024/04/09 11:48:35;;;;;;;0.00;0.00;;;;;;;-145.06;100.00;51673.44;11296707;26;20486;-74
2024/04/09 11:53:42;;;;;;;0.00;0.00;;;;;;;-145.06;100.00;51748.31;11261294;26;19995;-74
2024/04/09 11:58:47;;;;;;;0.00;0.00;;;;;;;-145.06;100.00;51788.81;11274689;26;19994;-74
2024/04/09 12:03:47;;;;;;;0.00;0.00;;;;;;;-145.06;100.00;51790.84;11277759;26;19999;-75
2024/04/09 12:08:48;;;;;;;0.00;0.00;;;;;;;-145.06;100.00;51817.16;11296510;26;19998;-76
2024/04/09 12:13:48;;;;;;;0.10;0.10;;;;;;;-145.06;100.00;51839.41;11311821;26;19995;-76
2024/04/09 12:18:48;;;;;;;0.00;0.00;;;;;;;-145.06;100.00;51782.72;11312479;26;19995;-76
2024/04/09 12:23:49;;;;;;;0.10;0.10;;;;;;;-145.06;100.00;51713.91;11290780;26;19995;-76
2024/04/09 12:28:56;;;;;;;0.00;0.00;;;;;;;-145.06;100.00;51677.47;11299919;26;20007;-76
2024/04/09 12:33:57;;;;;;;0.10;0.10;;;;;;;-145.06;100.00;51632.97;11295093;26;20085;-76
2024/04/09 12:38:57;;;;;;;0.10;0.10;;;;;;;-145.06;100.00;51614.75;11285043;26;20458;-76
2024/04/09 12:43:58;;;;;;;0.10;0.10;;;;;;;-145.06;100.00;51637.00;11236278;26;20332;-76
2024/04/09 12:48:58;;;;;;;0.00;0.00;;;;;;;-145.06;100.00;51687.59;11294979;26;20439;-76
2024/04/09 12:53:58;;;;;;;0.00;0.00;;;;;;;-145.06;100.00;51703.78;11274712;26;20455;-75
2024/04/09 12:58:59;;;;;;;0.00;0.00;;;;;;;-145.06;94.71;52053.97;11307880;26;20048;-75
2024/04/09 13:04:00;;;;;;;0.10;0.10;;;;;;;-145.06;88.30;52181.50;11284278;26;19995;-76
2024/04/09 13:09:00;;;;;;;0.00;0.00;;;;;;;-145.06;90.76;52181.50;11281909;26;20006;-75
2024/04/09 13:14:00;;;;;;;0.00;0.00;;;;;;;-145.06;89.41;52240.19;11263477;26;20470;-76
2024/04/09 13:19:01;;;;;;;0.00;0.00;;;;;;;-145.06;90.55;52264.50;11236068;26;20006;-76
2024/04/09 13:24:01;;;;;;;0.10;0.10;;;;;;;-145.06;94.57;52274.63;11283217;26;19999;-76
2024/04/09 13:29:05;;;;;;;0.00;0.00;;;;;;;-145.06;94.71;52274.63;11284346;26;20016;-76
2024/04/09 13:34:06;;;;;;;;;;;;;;;-145.06;96.47;52296.88;11317916;26;20075;-76
2024/04/09 13:39:07;;;;;;;0.00;0.00;;;;;;;-145.06;100.00;52288.78;11288357;26;20438;-76
2024/04/09 13:44:07;;;;;;;0.10;0.10;;;;;;;-145.06;100.00;52313.06;11293660;26;20008;-76
2024/04/09 13:49:08;;;;;;;0.10;0.10;;;;;;;-145.06;100.00;52300.94;11315156;26;19999;-76
2024/04/09 13:54:11;;;;;;;0.10;0.10;;;;;;;-145.06;100.00;52276.63;11314480;26;20006;-75
2024/04/09 13:59:11;;;;;;;0.10;0.10;;;;;;;-145.06;100.00;52226.03;11282648;26;20444;-76
2024/04/09 14:04:12;;;;;;;0.10;0.10;;;;;;;-145.06;100.00;52240.19;11283438;26;20001;-76
2024/04/09 14:09:13;;;;;;;0.00;0.00;;;;;;;-145.06;100.00;52195.66;11283068;26;20009;-76
2024/04/09 14:14:14;;;;;;;0.00;0.00;;;;;;;-145.06;100.00;52187.56;11282929;26;19999;-76
2024/04/09 14:19:19;;;;;;;0.10;0.10;;;;;;;-145.06;100.00;52187.56;11282147;26;20387;-76
2024/04/09 14:24:20;;;;;;;0.10;0.10;;;;;;;-145.06;100.00;52114.69;11282416;26;20076;-76
2024/04/09 14:29:20;;;;;;;0.10;0.10;;;;;;;-145.06;100.00;52132.91;11281979;26;20040;-76
2024/04/09 14:34:21;;;;;;;0.10;0.10;;;;;;;-145.06;100.00;52161.25;11212550;26;20067;-76
2024/04/09 14:39:22;;;;;;;0.00;0.00;;;;;;;-145.06;100.00;52122.78;11235997;26;19995;-76
2024/04/09 14:44:22;;;;;;;0.10;0.10;;;;;;;-145.06;100.00;52145.06;11281669;26;19995;-75
2024/04/09 14:49:22;;;;;;;0.10;0.10;;;;;;;-145.06;100.00;52092.44;11281580;26;20063;-75
2024/04/09 14:54:26;;;;;;;0.10;0.10;;;;;;;-145.06;100.00;52096.47;11281326;26;20010;-75
2024/04/09 14:59:26;;;;;;;0.00;0.00;;;;;;;-145.06;100.00;52070.16;11284579;26;20232;-76
2024/04/09 15:04:26;;;;;;;0.10;0.10;;;;;;;-145.06;100.00;52088.38;11310172;26;19998;-76
2024/04/09 15:09:27;;;;;;;0.10;0.10;;;;;;;-145.06;100.00;52041.81;11326228;26;19998;-76
2024/04/09 15:14:27;;;;;;;0.00;0.00;;;;;;;-145.06;100.00;52076.25;11321657;26;20080;-75
2024/04/09 15:19:27;;;;;;;0.00;0.00;;;;;;;-145.06;100.00;52076.25;11292805;26;20017;-76
2024/04/09 15:24:29;;;;;;;0.10;0.10;;;;;;;-145.06;100.00;52076.25;11265443;26;20011;-75
2024/04/09 15:29:29;;;;;;;0.10;0.10;;;;;;;-145.06;100.00;52068.13;11233696;26;20069;-76
2024/04/09 15:34:29;;;;;;;0.00;0.00;;;;;;;-145.06;100.00;52096.47;11245205;26;20409;-75
2024/04/09 15:39:31;;;;;;;0.10;0.10;;;;;;;-145.06;100.00;52084.34;11257496;26;20007;-75
2024/04/09 15:44:32;;;;;;;0.00;0.00;;;;;;;-145.06;100.00;52090.41;11265166;26;20018;-75
2024/04/09 15:49:32;;;;;;;0.00;0.00;;;;;;;-145.06;100.00;52068.13;11253750;26;20530;-76
2024/04/09 15:54:32;;;;;;;0.10;0.10;;;;;;;-145.06;100.00;52088.38;11281849;26;20460;-75
2024/04/09 15:59:33;;;;;;;0.10;0.10;;;;;;;-145.06;100.00;52078.25;11268315;26;20484;-75
2024/04/09 16:04:33;;;;;;;0.03;0.03;;;;;;;-145.06;100.00;52116.72;11300683;26;20010;-76
2024/04/09 16:09:34;;;;;;;0.10;0.10;;;;;;;-145.06;100.00;52108.63;11287956;26;20276;-75
2024/04/09 16:14:37;;;;;;;0.05;0.05;;;;;;;-145.06;100.00;52058.03;11292364;26;20010;-75
2024/04/09 16:19:37;;;;;;;0.00;0.00;;;;;;;-145.06;100.00;52108.63;11245283;26;20359;-75
2024/04/09 16:24:37;;;;;;;0.10;0.10;;;;;;;-145.06;100.00;52165.31;11292777;26;19999;-74
2024/04/09 16:29:38;;;;;;;0.10;0.10;;;;;;;-145.06;100.00;52122.78;11281312;26;20010;-75
2024/04/09 16:34:41;;;;;;;0.10;0.10;;;;;;;-145.06;100.00;52157.22;11294515;26;19998;-75
2024/04/09 16:39:41;;;;;;;0.10;0.10;;;;;;;-145.06;100.00;52181.50;11262164;26;20070;-75
2024/04/09 16:44:42;;;;;;;0.00;0.00;;;;;;;-145.06;100.00;52205.78;11291840;26;20474;-75
2024/04/09 16:49:43;;;;;;;0.10;0.10;;;;;;;-145.06;100.00;52211.88;11252764;26;20017;-75
2024/04/09 16:54:43;;;;;;;0.10;0.10;;;;;;;-145.06;100.00;52215.91;11255538;26;20341;-75
2024/04/09 16:59:43;;;;;;;0.10;0.10;;;;;;;-145.06;100.00;52221.97;11292146;26;20456;-75
2024/04/09 17:04:44;;;;;;;0.00;0.00;;;;;;;-145.06;100.00;52240.19;11286989;26;20002;-75
2024/04/09 17:09:49;;;;;;;0.10;0.10;;;;;;;-145.06;100.00;52260.44;11266097;26;20000;-75
2024/04/09 17:14:50;;;;;;;0.10;0.10;;;;;;;-145.06;100.00;52264.50;11267697;26;20369;-75
2024/04/09 17:19:50;;;;;;;0.10;0.10;;;;;;;-145.06;100.00;52307.00;11266559;26;19999;-74
2024/04/09 17:24:50;;;;;;;0.00;0.00;;;;;;;-145.06;100.00;52292.84;11296153;26;20003;-75
2024/04/09 17:29:51;;;;;;;0.10;0.10;;;;;;;-145.06;100.00;52280.69;11293123;26;20003;-74
2024/04/09 17:34:51;;;;;;;0.10;0.10;;;;;;;-145.06;100.00;52264.50;11292948;26;20006;-75
2024/04/09 17:39:52;;;;;;;0.10;0.10;;;;;;;-145.06;100.00;52321.19;11291071;26;20014;-75
2024/04/09 17:44:52;;;;;;;0.00;0.00;;;;;;;-145.06;100.00;52329.28;11280367;26;20070;-75
2024/04/09 17:49:53;;;;;;;0.10;0.10;;;;;;;-145.06;100.00;52329.28;11289982;26;20002;-75
2024/04/09 17:54:53;;;;;;;0.00;0.00;;;;;;;-145.06;100.00;52321.19;11273826;26;20009;-75
2024/04/09 17:59:56;;;;;;;0.10;0.10;;;;;;;-145.06;100.00;52323.19;11282131;26;20056;-75
2024/04/09 18:04:56;;;;;;;0.10;0.10;;;;;;;-145.06;100.00;52351.53;11284226;26;20006;-74
2024/04/09 18:09:57;;;;;;;0.10;0.10;;;;;;;-145.06;100.00;52331.28;11282415;26;20009;-75
2024/04/09 18:14:57;;;;;;;0.10;0.10;;;;;;;-145.06;100.00;52335.34;11291989;26;20413;-77
2024/04/09 18:19:57;;;;;;;0.10;0.10;;;;;;;-145.06;100.00;52357.63;11290614;26;20356;-74
2024/04/09 18:24:57;;;;;;;0.10;0.10;;;;;;;-145.06;100.00;52337.38;11281740;26;20009;-75
2024/04/09 18:29:58;;;;;;;0.00;0.00;;;;;;;-145.06;100.00;52359.63;11281731;26;19998;-74
2024/04/09 18:34:58;;;;;;;0.10;0.10;;;;;;;-145.06;100.00;52353.56;11303384;26;19994;-74
2024/04/09 18:39:59;;;;;;;0.00;0.00;;;;;;;-145.06;100.00;52349.50;11281043;26;20007;-74
2024/04/09 18:45:00;;;;;;;0.10;0.10;;;;;;;-145.06;100.00;52347.50;11273646;26;20232;-74
2024/04/09 18:50:01;;;;;;;0.10;0.10;;;;;;;-145.06;100.00;52359.63;11283289;26;20009;-75
2024/04/09 18:55:01;;;;;;;0.00;0.00;;;;;;;-145.06;100.00;52333.31;11287444;26;20471;-74
2024/04/09 19:00:01;;;;;;;0.10;0.10;;;;;;;-145.06;100.00;52381.91;11273758;26;20017;-74
2024/04/09 19:05:02;;;;;;;0.00;0.00;;;;;;;-145.06;100.00;52361.66;11304495;26;20435;-76
2024/04/09 19:10:02;;;;;;;0.10;0.10;;;;;;;-145.06;100.00;52359.63;11288118;26;20611;-76
2024/04/09 19:15:03;;;;;;;0.10;0.10;;;;;;;-145.06;100.00;52373.81;11279859;26;20003;-76
2024/04/09 19:20:05;;;;;;;0.10;0.10;;;;;;;-145.06;100.00;52385.97;11299791;26;20002;-76
2024/04/09 19:25:06;;;;;;;0.00;0.00;;;;;;;-145.06;98.30;52428.47;11255737;26;19995;-75
2024/04/09 19:30:07;;;;;;;0.10;0.10;;;;;;;-145.06;100.00;52406.19;11266686;26;20003;-75
2024/04/09 19:35:08;;;;;;;0.10;0.10;;;;;;;-145.06;100.00;52390.00;11301819;26;20017;-74
2024/04/09 19:40:09;;;;;;;0.10;0.10;;;;;;;-145.06;100.00;52402.16;11282961;26;19999;-74
2024/04/09 19:45:10;;;;;;;0.10;0.10;;;;;;;-145.06;100.00;52406.19;11297402;26;20003;-74
2024/04/09 19:50:13;;;;;;;0.00;0.00;;;;;;;-145.06;98.15;52426.44;11285840;26;20006;-74
2024/04/09 19:55:14;;;;;;;0.00;0.00;;;;;;;-145.06;85.49;52513.50;11283024;26;20013;-74
2024/04/09 20:00:14;;;;;;;0.10;0.10;;;;;;;-145.06;85.50;52519.56;11292291;26;20345;-76
2024/04/09 20:05:15;;;;;;;0.10;0.10;;;;;;;-145.06;82.19;52527.66;11278763;26;20075;-74
2024/04/09 20:10:16;;;;;;;0.10;0.10;;;;;;;-145.06;80.60;52517.53;11287893;26;20002;-74
2024/04/09 20:15:16;;;;;;;0.10;0.10;;;;;;;-145.06;82.60;52549.94;11273231;26;20478;-73
2024/04/09 20:20:16;;;;;;;0.10;0.10;;;;;;;-145.06;83.63;52568.16;11300038;26;20021;-74
2024/04/09 20:25:17;;;;;;;0.10;0.10;;;;;;;-145.06;82.83;52574.22;11290868;26;19995;-74
2024/04/09 20:30:17;;;;;;;0.10;0.10;;;;;;;-145.06;83.20;52576.25;11265473;26;19999;-74
2024/04/09 20:35:18;;;;;;;0.10;0.10;;;;;;;-145.06;84.60;52602.56;11300068;26;20075;-74
2024/04/09 20:40:20;;;;;;;0.00;0.00;;;;;;;-145.06;85.17;52551.97;11307946;26;20228;-73
2024/04/09 20:45:20;;;;;;;0.10;0.10;;;;;;;-145.06;87.11;52602.56;11294003;26;20003;-74
2024/04/09 20:50:21;;;;;;;0.10;0.10;;;;;;;-145.06;87.33;52600.53;11303151;26;20017;-73
2024/04/09 20:55:21;;;;;;;0.00;0.00;;;;;;;-145.06;88.00;52616.75;11271926;26;20080;-74
2024/04/09 21:00:21;;;;;;;0.10;0.10;;;;;;;-145.06;89.85;52598.53;11250091;26;20013;-73
2024/04/09 21:05:22;;;;;;;0.10;0.10;;;;;;;-145.06;90.61;52582.31;11289469;26;20011;-73
2024/04/09 21:10:22;;;;;;;0.10;0.10;;;;;;;-145.06;90.73;52596.50;11336728;26;19998;-74
2024/04/09 21:15:23;;;;;;;0.10;0.10;;;;;;;-145.06;91.40;52612.69;11292811;26;20237;-74
2024/04/09 21:20:23;;;;;;;0.10;0.10;;;;;;;-145.06;92.50;52606.63;11276431;26;20003;-74
2024/04/09 21:25:23;;;;;;;0.10;0.10;;;;;;;-145.06;93.59;52628.88;11314864;26;20393;-74
2024/04/09 21:30:24;;;;;;;0.10;0.10;;;;;;;-145.06;93.81;52606.63;11347816;26;20280;-74
2024/04/09 21:35:24;;;;;;;0.10;0.10;;;;;;;-145.06;93.55;52606.63;11309975;26;20006;-74
2024/04/09 21:40:24;;;;;;;0.10;0.10;;;;;;;-145.06;92.87;52618.75;11296331;26;19999;-74
2024/04/09 21:45:25;;;;;;;0.10;0.10;;;;;;;-145.06;92.53;52655.22;11322991;26;20006;-74
2024/04/09 21:50:25;;;;;;;0.10;0.10;;;;;;;-145.06;93.64;52661.28;11261240;26;20010;-74
2024/04/09 21:55:25;;;;;;;0.10;0.10;;;;;;;-145.06;93.74;52649.13;11339890;26;20073;-74
2024/04/09 22:00:33;;;;;;;0.10;0.10;;;;;;;-145.06;94.71;52639.00;11288421;26;20068;-74
2024/04/09 22:05:34;;;;;;;0.10;0.10;;;;;;;-145.06;95.70;52637.00;11287830;26;20018;-74
2024/04/09 22:10:35;;;;;;;0.05;0.05;;;;;;;-145.06;95.62;52661.28;11314242;26;20006;-74
2024/04/09 22:15:35;;;;;;;0.10;0.10;;;;;;;-145.06;96.67;52610.66;11321250;26;20071;-74
2024/04/09 22:20:40;;;;;;;0.10;0.10;;;;;;;-145.06;97.78;52628.88;11303616;26;20002;-74
2024/04/09 22:25:41;;;;;;;0.00;0.00;;;;;;;-145.06;98.27;52647.13;11294643;26;20003;-74
2024/04/09 22:30:41;;;;;;;0.00;0.00;;;;;;;-145.06;98.09;52639.00;11276875;26;20002;-74
2024/04/09 22:35:50;;;;;;;0.10;0.10;;;;;;;-145.06;98.47;52632.94;11308980;26;20005;-74